| time (UTC) | temp F | wind direction | speed MPH | gust MPH | rain 1hr in | rain 24hr in | rain mn in | humidity % | barometer mb |
| 20260507143040 | 47 | 318 | 1.0 | 4.0 | 0.00 | 0.00 | 0.00 | 25 | 1012.7 |
| 20260507141537 | 42 | 319 | 0.0 | 2.0 | 0.00 | 0.00 | 0.00 | 34 | 1012.7 |
| 20260507140028 | 38 | 245 | 0.0 | 0.0 | 0.00 | 0.00 | 0.00 | 49 | 1012.7 |
| 20260507134525 | 34 | 245 | 0.0 | 0.0 | 0.00 | 0.00 | 0.00 | 51 | 1012.6 |
| 20260507133023 | 32 | 245 | 0.0 | 0.0 | 0.00 | 0.00 | 0.00 | 53 | 1012.5 |
| 20260507131521 | 30 | 245 | 0.0 | 0.0 | 0.00 | 0.00 | 0.00 | 53 | 1012.5 |
| 20260507130026 | 29 | 245 | 0.0 | 0.0 | 0.00 | 0.00 | 0.00 | 52 | 1012.3 |
| 20260507124519 | 29 | 245 | 0.0 | 0.0 | 0.00 | 0.00 | 0.00 | 51 | 1012.2 |
| 20260507123014 | 28 | 245 | 0.0 | 0.0 | 0.00 | 0.00 | 0.00 | 50 | 1012.1 |
| 20260507121512 | 28 | 245 | 0.0 | 0.0 | 0.00 | 0.00 | 0.00 | 49 | 1012.0 |
| 20260507120011 | 28 | 245 | 0.0 | 0.0 | 0.00 | 0.00 | 0.00 | 48 | 1011.9 |
| 20260507114510 | 28 | 245 | 0.0 | 0.0 | 0.00 | 0.00 | 0.00 | 48 | 1011.7 |
| 20260507113013 | 28 | 245 | 0.0 | 0.0 | 0.00 | 0.00 | 0.00 | 47 | 1011.5 |
| 20260507111510 | 28 | 245 | 0.0 | 0.0 | 0.00 | 0.00 | 0.00 | 48 | 1011.5 |
| 20260507110019 | 29 | 245 | 0.0 | 0.0 | 0.00 | 0.00 | 0.00 | 47 | 1011.4 |
| 20260507104504 | 29 | 245 | 0.0 | 0.0 | 0.00 | 0.00 | 0.00 | 47 | 1011.2 |
| 20260507103002 | 30 | 245 | 0.0 | 0.0 | 0.00 | 0.00 | 0.00 | 46 | 1011.0 |
| 20260507101501 | 30 | 245 | 0.0 | 0.0 | 0.00 | 0.00 | 0.00 | 45 | 1011.1 |
| 20260507100100 | 30 | 245 | 0.0 | 0.0 | 0.00 | 0.00 | 0.00 | 45 | 1011.1 |
| 20260507094559 | 30 | 245 | 0.0 | 0.0 | 0.00 | 0.00 | 0.00 | 44 | 1011.1 |
| 20260507093057 | 31 | 245 | 0.0 | 0.0 | 0.00 | 0.00 | 0.00 | 44 | 1011.0 |
| 20260507091556 | 31 | 245 | 0.0 | 0.0 | 0.00 | 0.00 | 0.00 | 44 | 1011.0 |
| 20260507090055 | 32 | 245 | 0.0 | 0.0 | 0.00 | 0.00 | 0.00 | 42 | 1010.8 |
| 20260507084552 | 32 | 245 | 0.0 | 0.0 | 0.00 | 0.00 | 0.00 | 42 | 1010.9 |
| 20260507083049 | 33 | 245 | 0.0 | 0.0 | 0.00 | 0.00 | 0.00 | 41 | 1010.7 |
| 20260507081547 | 33 | 245 | 0.0 | 0.0 | 0.00 | 0.00 | 0.00 | 40 | 1010.7 |
| 20260507080046 | 34 | 247 | 0.0 | 1.0 | 0.00 | 0.00 | 0.00 | 39 | 1011.0 |
| 20260507074559 | 33 | 205 | 0.0 | 0.0 | 0.00 | 0.00 | 0.00 | 40 | 1011.2 |
| 20260507073045 | 34 | 195 | 0.0 | 0.0 | 0.00 | 0.00 | 0.00 | 38 | 1011.1 |
| 20260507071540 | 35 | 192 | 0.0 | 1.0 | 0.00 | 0.00 | 0.00 | 36 | 1011.0 |
| 20260507070043 | 36 | 156 | 0.0 | 1.0 | 0.00 | 0.00 | 0.00 | 35 | 1011.2 |
| 20260507064535 | 35 | 144 | 0.0 | 2.0 | 0.00 | 0.00 | 0.00 | 34 | 1011.2 |
| 20260507063046 | 34 | 195 | 0.0 | 0.0 | 0.00 | 0.00 | 0.00 | 39 | 1011.4 |
| 20260507061533 | 35 | 195 | 0.0 | 0.0 | 0.00 | 0.00 | 0.00 | 38 | 1011.6 |
| 20260507060039 | 35 | 195 | 0.0 | 0.0 | 0.00 | 0.00 | 0.00 | 37 | 1011.7 |
| 20260507054526 | 36 | 195 | 0.0 | 0.0 | 0.00 | 0.00 | 0.00 | 37 | 1011.8 |
| 20260507053026 | 37 | 163 | 0.0 | 0.0 | 0.00 | 0.00 | 0.00 | 35 | 1011.9 |
| 20260507051525 | 38 | 165 | 0.0 | 1.0 | 0.00 | 0.00 | 0.00 | 34 | 1012.0 |
| 20260507050032 | 38 | 165 | 0.0 | 1.0 | 0.00 | 0.00 | 0.00 | 33 | 1012.1 |
| 20260507044522 | 39 | 148 | 0.0 | 0.0 | 0.00 | 0.00 | 0.00 | 33 | 1012.2 |
| 20260507043021 | 40 | 148 | 0.0 | 0.0 | 0.00 | 0.00 | 0.00 | 31 | 1012.3 |
| 20260507041519 | 41 | 148 | 0.0 | 0.0 | 0.00 | 0.00 | 0.00 | 29 | 1012.6 |
| 20260507040019 | 42 | 148 | 0.0 | 1.0 | 0.00 | 0.00 | 0.00 | 28 | 1012.7 |
| 20260507034529 | 42 | 148 | 0.0 | 2.0 | 0.00 | 0.00 | 0.00 | 28 | 1012.8 |
| 20260507033015 | 42 | 149 | 0.0 | 2.0 | 0.00 | 0.00 | 0.00 | 28 | 1013.1 |
| 20260507031514 | 43 | 155 | 0.0 | 1.0 | 0.00 | 0.00 | 0.00 | 28 | 1013.3 |
| 20260507030014 | 44 | 155 | 0.0 | 2.0 | 0.00 | 0.00 | 0.00 | 26 | 1013.4 |
| 20260507024516 | 45 | 155 | 0.0 | 0.0 | 0.00 | 0.00 | 0.00 | 27 | 1013.3 |
| 20260507023012 | 46 | 155 | 0.0 | 0.0 | 0.00 | 0.00 | 0.00 | 24 | 1013.5 |
| 20260507021510 | 48 | 155 | 0.0 | 0.0 | 0.00 | 0.00 | 0.00 | 22 | 1013.5 |
| 20260507020025 | 49 | 155 | 0.0 | 0.0 | 0.00 | 0.00 | 0.00 | 20 | 1013.5 |
| 20260507014509 | 51 | 155 | 0.0 | 0.0 | 0.00 | 0.00 | 0.00 | 18 | 1013.6 |
| 20260507013012 | 52 | 155 | 0.0 | 0.0 | 0.00 | 0.00 | 0.00 | 16 | 1013.7 |
| 20260507011508 | 52 | 154 | 0.0 | 1.0 | 0.00 | 0.00 | 0.00 | 16 | 1013.8 |
| 20260507010006 | 53 | 169 | 0.0 | 2.0 | 0.00 | 0.00 | 0.00 | 15 | 1013.8 |
| 20260507004504 | 53 | 334 | 0.0 | 2.0 | 0.00 | 0.00 | 0.00 | 14 | 1013.7 |
| 20260507003003 | 54 | 166 | 0.0 | 3.0 | 0.00 | 0.00 | 0.00 | 14 | 1013.9 |
| 20260507001501 | 54 | 81 | 0.0 | 2.0 | 0.00 | 0.00 | 0.00 | 13 | 1014.1 |
| 20260507000059 | 54 | 217 | 0.0 | 1.0 | 0.00 | 0.00 | 0.00 | 14 | 1014.4 |
| 20260506234558 | 55 | 129 | 0.0 | 2.0 | 0.00 | 0.00 | 0.00 | 14 | 1014.6 |
| 20260506233107 | 55 | 182 | 0.0 | 5.0 | 0.00 | 0.00 | 0.00 | 13 | 1014.7 |
| 20260506231605 | 55 | 222 | 0.0 | 3.0 | 0.00 | 0.00 | 0.00 | 13 | 1014.9 |
| 20260506224554 | 57 | 317 | 1.0 | 5.0 | 0.00 | 0.00 | 0.00 | 12 | 1015.0 |
| 20260506223052 | 56 | 257 | 0.0 | 7.0 | 0.00 | 0.00 | 0.00 | 13 | 1015.0 |
| 20260506221557 | 55 | 309 | 0.0 | 3.0 | 0.00 | 0.00 | 0.00 | 14 | 1015.3 |
| 20260506220049 | 54 | 128 | 0.0 | 2.0 | 0.00 | 0.00 | 0.00 | 13 | 1015.8 |
| 20260506214551 | 56 | 331 | 0.0 | 3.0 | 0.00 | 0.00 | 0.00 | 12 | 1015.9 |
| 20260506213045 | 57 | 307 | 1.0 | 3.0 | 0.00 | 0.00 | 0.00 | 12 | 1016.2 |
| 20260506211544 | 57 | 159 | 1.0 | 4.0 | 0.00 | 0.00 | 0.00 | 12 | 1016.6 |
| 20260506210040 | 56 | 165 | 1.0 | 4.0 | 0.00 | 0.00 | 0.00 | 13 | 1016.9 |
| 20260506204538 | 56 | 128 | 1.0 | 5.0 | 0.00 | 0.00 | 0.00 | 12 | 1017.2 |
| 20260506203034 | 55 | 147 | 0.0 | 3.0 | 0.00 | 0.00 | 0.00 | 13 | 1017.2 |
| 20260506201535 | 55 | 342 | 1.0 | 3.0 | 0.00 | 0.00 | 0.00 | 13 | 1017.5 |
| 20260506200039 | 54 | 166 | 0.0 | 4.0 | 0.00 | 0.00 | 0.00 | 14 | 1017.7 |
| 20260506194529 | 54 | 153 | 1.0 | 4.0 | 0.00 | 0.00 | 0.00 | 14 | 1017.8 |
| 20260506193029 | 54 | 349 | 1.0 | 6.0 | 0.00 | 0.00 | 0.00 | 13 | 1017.9 |
| 20260506191526 | 54 | 319 | 0.0 | 6.0 | 0.00 | 0.00 | 0.00 | 15 | 1018.2 |
| 20260506190024 | 53 | 261 | 1.0 | 5.0 | 0.00 | 0.00 | 0.00 | 15 | 1018.3 |
| 20260506184520 | 53 | 288 | 0.0 | 4.0 | 0.00 | 0.00 | 0.00 | 14 | 1018.7 |
| 20260506183018 | 53 | 312 | 2.0 | 4.0 | 0.00 | 0.00 | 0.00 | 14 | 1018.8 |
| 20260506181518 | 52 | 328 | 1.0 | 5.0 | 0.00 | 0.00 | 0.00 | 15 | 1019.2 |
| 20260506180017 | 52 | 162 | 1.0 | 6.0 | 0.00 | 0.00 | 0.00 | 14 | 1019.6 |
| 20260506174510 | 52 | 169 | 1.0 | 4.0 | 0.00 | 0.00 | 0.00 | 16 | 1019.8 |
| 20260506173005 | 51 | 84 | 1.0 | 3.0 | 0.00 | 0.00 | 0.00 | 15 | 1019.9 |
| 20260506171502 | 50 | 334 | 2.0 | 6.0 | 0.00 | 0.00 | 0.00 | 17 | 1020.2 |
| 20260506170103 | 49 | 315 | 2.0 | 7.0 | 0.00 | 0.00 | 0.00 | 16 | 1020.3 |
| 20260506164613 | 48 | 253 | 2.0 | 6.0 | 0.00 | 0.00 | 0.00 | 17 | 1020.5 |
| 20260506163058 | 48 | 212 | 1.0 | 4.0 | 0.00 | 0.00 | 0.00 | 18 | 1020.6 |
| 20260506161550 | 46 | 225 | 1.0 | 5.0 | 0.00 | 0.00 | 0.00 | 19 | 1020.8 |
| 20260506160049 | 46 | 313 | 1.0 | 4.0 | 0.00 | 0.00 | 0.00 | 18 | 1020.8 |
| 20260506154548 | 45 | 310 | 1.0 | 4.0 | 0.00 | 0.00 | 0.00 | 20 | 1020.8 |
| 20260506153035 | 44 | 360 | 2.0 | 5.0 | 0.00 | 0.00 | 0.00 | 22 | 1020.9 |
| 20260506151530 | 42 | 311 | 1.0 | 5.0 | 0.00 | 0.00 | 0.00 | 23 | 1021.0 |
| 20260506150026 | 41 | 20 | 1.0 | 4.0 | 0.00 | 0.00 | 0.00 | 24 | 1021.1 |
| 20260506144523 | 40 | 319 | 2.0 | 6.0 | 0.00 | 0.00 | 0.00 | 25 | 1021.2 |